Time;durP1;ratioP1;P1;durP2;ratioP2;P2;SDS_P1;SDS_P2;PMS_P1;PMS_P2;Temp;Humidity;BMP_temperature;BMP_pressure;BME280_temperature;BME280_humidity;BME280_pressure;Samples;Min_cycle;Max_cycle;Signal;HPM_P1;HPM_P2
2022/09/28 00:01:22;;;;;;;6.50;4.60;;;8.20;99.90;;;;;;4957052;28;20043;-80
2022/09/28 00:03:50;;;;;;;5.90;4.80;;;8.40;99.90;;;;;;4956409;28;20054;-82
2022/09/28 00:06:18;;;;;;;7.40;5.32;;;8.20;99.90;;;;;;4956474;29;20084;-80
2022/09/28 00:08:44;;;;;;;8.30;5.85;;;8.20;99.90;;;;;;4956358;28;20051;-79
2022/09/28 00:11:14;;;;;;;8.82;4.95;;;8.20;99.90;;;;;;4956412;28;20130;-77
2022/09/28 00:13:41;;;;;;;7.80;5.10;;;8.50;99.90;;;;;;4956311;28;20050;-83
2022/09/28 00:16:10;;;;;;;10.80;5.93;;;8.30;99.90;;;;;;4956286;28;20144;-80
2022/09/28 00:18:36;;;;;;;8.38;5.45;;;8.20;99.90;;;;;;4956281;28;20054;-79
2022/09/28 00:21:11;;;;;;;8.18;5.82;;;8.20;99.90;;;;;;4956011;28;20400;-80
2022/09/28 00:24:11;;;;;;;8.13;5.40;;;8.20;99.90;;;;;;4956067;28;20047;-79
2022/09/28 00:26:23;;;;;;;8.27;5.88;;;8.20;99.90;;;;;;4955298;28;20099;-81
2022/09/28 00:28:53;;;;;;;8.23;5.30;;;8.20;99.90;;;;;;4956063;28;20055;-79
2022/09/28 00:31:19;;;;;;;7.65;5.90;;;8.20;99.90;;;;;;4956054;29;20047;-81
2022/09/28 00:33:54;;;;;;;10.70;5.60;;;8.20;99.90;;;;;;4956041;28;20384;-78
2022/09/28 00:36:19;;;;;;;8.52;5.75;;;8.10;99.90;;;;;;4956075;28;20287;-80
2022/09/28 00:38:45;;;;;;;8.65;5.90;;;8.20;99.90;;;;;;4956672;29;20050;-81
2022/09/28 00:41:11;;;;;;;7.57;5.07;;;8.10;99.90;;;;;;4937207;29;20062;-79
2022/09/28 00:43:37;;;;;;;7.82;5.57;;;8.00;99.90;;;;;;4936901;29;20547;-78
2022/09/28 00:46:13;;;;;;;7.93;5.68;;;8.60;99.90;;;;;;4936743;29;20444;-80
2022/09/28 00:48:44;;;;;;;9.63;5.40;;;8.00;99.90;;;;;;4936395;29;20130;-83
2022/09/28 00:51:11;;;;;;;8.98;5.40;;;8.00;99.90;;;;;;4936943;29;20043;-80
2022/09/28 00:53:42;;;;;;;8.00;5.63;;;8.10;99.90;;;;;;4936924;29;20076;-79
2022/09/28 00:56:11;;;;;;;7.28;5.30;;;8.00;99.90;;;;;;4936663;29;20040;-78
2022/09/28 00:58:44;;;;;;;7.82;5.72;;;7.90;99.90;;;;;;4936556;29;20048;-81
2022/09/28 01:01:11;;;;;;;8.93;6.35;;;7.90;99.90;;;;;;4936511;29;20052;-79
2022/09/28 01:03:37;;;;;;;;;;;7.90;99.90;;;;;;4937110;29;20048;-78
2022/09/28 01:06:05;;;;;;;8.18;5.53;;;7.80;99.90;;;;;;4936484;29;20363;-80
2022/09/28 01:08:32;;;;;;;6.80;5.18;;;7.80;99.90;;;;;;4936538;29;20043;-81
2022/09/28 01:10:59;;;;;;;7.70;5.80;;;7.80;99.90;;;;;;4936266;29;20048;-81
2022/09/28 01:13:25;;;;;;;9.38;5.53;;;7.80;99.90;;;;;;4936394;29;20044;-81
2022/09/28 01:16:22;;;;;;;7.22;5.55;;;7.80;99.90;;;;;;4935001;29;20125;-78
2022/09/28 01:19:24;;;;;;;9.00;5.80;;;7.80;99.90;;;;;;4936714;29;20126;-78
2022/09/28 01:21:58;;;;;;;7.70;5.30;;;7.80;99.90;;;;;;4936403;29;20111;-77
2022/09/28 01:24:44;;;;;;;7.43;5.38;;;7.80;99.90;;;;;;4936331;29;20040;-80
2022/09/28 01:27:24;;;;;;;7.47;5.28;;;7.80;99.90;;;;;;4936707;29;20403;-81
2022/09/28 01:30:07;;;;;;;7.15;5.03;;;7.80;99.90;;;;;;4936390;29;20087;-81
2022/09/28 01:32:42;;;;;;;8.45;5.95;;;7.80;99.90;;;;;;4936139;29;20083;-80
2022/09/28 01:35:24;;;;;;;8.30;5.35;;;7.80;99.90;;;;;;4936190;29;20067;-81
2022/09/28 01:37:54;;;;;;;7.82;5.63;;;7.80;99.90;;;;;;4938656;29;20046;-81
2022/09/28 01:40:23;;;;;;;7.75;5.60;;;7.80;99.90;;;;;;4952491;29;20062;-78
2022/09/28 01:42:55;;;;;;;7.82;5.35;;;7.70;99.90;;;;;;4959027;28;20134;-80
2022/09/28 01:45:26;;;;;;;7.88;5.43;;;7.70;99.90;;;;;;4959085;28;20078;-81
2022/09/28 01:47:58;;;;;;;7.90;5.07;;;7.70;99.90;;;;;;4958669;28;20043;-80
2022/09/28 01:50:26;;;;;;;8.50;5.47;;;7.70;99.90;;;;;;4959253;28;20051;-80
2022/09/28 01:53:05;;;;;;;7.30;4.68;;;7.70;99.90;;;;;;4958896;28;20040;-80
2022/09/28 01:55:36;;;;;;;8.77;5.10;;;7.60;99.90;;;;;;4958890;28;20533;-81
2022/09/28 01:58:31;;;;;;;7.05;5.18;;;7.60;99.90;;;;;;4959317;28;20391;-81
2022/09/28 02:01:02;;;;;;;9.85;4.75;;;7.50;99.90;;;;;;4958879;28;20089;-82
2022/09/28 02:03:39;;;;;;;6.70;4.57;;;7.50;99.90;;;;;;4958634;29;20047;-83
2022/09/28 02:06:14;;;;;;;6.80;4.90;;;7.40;99.90;;;;;;4958662;28;20044;-80
2022/09/28 02:08:47;;;;;;;6.18;4.72;;;7.30;99.90;;;;;;4958686;28;20062;-79
2022/09/28 02:11:18;;;;;;;7.70;5.13;;;7.30;99.90;;;;;;4958979;28;20056;-80
2022/09/28 02:13:55;;;;;;;11.07;5.35;;;7.30;99.90;;;;;;4941364;29;20054;-83
2022/09/28 02:16:30;;;;;;;9.32;5.47;;;7.40;99.90;;;;;;4958505;28;20507;-79
2022/09/28 02:18:56;;;;;;;7.38;5.53;;;7.30;99.90;;;;;;4958877;29;20435;-78
2022/09/28 02:21:40;;;;;;;8.48;6.07;;;7.30;99.90;;;;;;4958393;28;20046;-78
2022/09/28 02:24:12;;;;;;;8.48;5.07;;;7.20;99.90;;;;;;4958326;28;20053;-81
2022/09/28 02:26:42;;;;;;;8.35;5.50;;;7.20;99.90;;;;;;4958310;28;20086;-80
2022/09/28 02:29:07;;;;;;;9.32;5.80;;;7.20;99.90;;;;;;4958202;28;20620;-80
2022/09/28 02:31:34;;;;;;;8.73;5.65;;;7.20;99.90;;;;;;4958232;28;20130;-80
2022/09/28 02:33:59;;;;;;;9.70;6.40;;;7.10;99.90;;;;;;4958217;28;20043;-79
2022/09/28 02:36:27;;;;;;;8.20;6.05;;;7.10;99.90;;;;;;4958199;29;20246;-77
2022/09/28 02:38:54;;;;;;;8.55;5.18;;;7.00;99.90;;;;;;4957831;28;20083;-78
2022/09/28 02:41:47;;;;;;;12.48;5.30;;;7.00;99.90;;;;;;4958134;28;20059;-76
2022/09/28 02:44:31;;;;;;;9.13;6.43;;;7.00;99.90;;;;;;4958439;28;20480;-79
2022/09/28 02:47:08;;;;;;;7.93;6.05;;;7.00;99.90;;;;;;4957942;29;20133;-77
2022/09/28 02:49:59;;;;;;;7.53;5.78;;;7.00;99.90;;;;;;4957029;28;20086;-77
2022/09/28 02:52:51;;;;;;;7.38;5.35;;;7.00;99.90;;;;;;4957963;28;20099;-76
2022/09/28 02:55:46;;;;;;;10.02;6.75;;;7.00;99.90;;;;;;4957857;29;20051;-80
2022/09/28 02:58:24;;;;;;;9.38;5.28;;;7.00;99.90;;;;;;4957825;28;20069;-78
2022/09/28 03:00:49;;;;;;;;;;;6.90;99.90;;;;;;4958479;29;20511;-77
2022/09/28 03:03:32;;;;;;;9.05;6.68;;;6.90;99.90;;;;;;4957622;28;20013;-76
2022/09/28 03:06:00;;;;;;;8.05;5.60;;;6.90;99.90;;;;;;4957657;29;20099;-79
2022/09/28 03:08:36;;;;;;;9.63;6.18;;;6.80;99.90;;;;;;4957521;29;20063;-77
2022/09/28 03:11:08;;;;;;;12.02;7.15;;;6.80;99.90;;;;;;4957600;28;20054;-78
2022/09/28 03:13:34;;;;;;;19.55;8.40;;;6.80;99.90;;;;;;4957904;28;20150;-78
2022/09/28 03:16:11;;;;;;;11.65;6.93;;;6.80;99.90;;;;;;4957514;28;20381;-75
2022/09/28 03:18:37;;;;;;;12.17;7.93;;;6.70;99.90;;;;;;4957570;28;20091;-79
2022/09/28 03:21:03;;;;;;;10.18;6.57;;;6.70;99.90;;;;;;4957044;29;20333;-80
2022/09/28 03:23:29;;;;;;;11.13;6.80;;;6.60;99.90;;;;;;4956936;29;20070;-76
2022/09/28 03:25:55;;;;;;;13.43;7.93;;;6.60;99.90;;;;;;4957286;28;20043;-79
2022/09/28 03:28:21;;;;;;;13.30;7.95;;;6.60;99.90;;;;;;4957251;28;20055;-78
2022/09/28 03:30:47;;;;;;;12.40;9.65;;;6.60;99.90;;;;;;4957137;28;20047;-80
2022/09/28 03:33:12;;;;;;;13.05;9.00;;;7.10;99.90;;;;;;4957096;29;20508;-80
2022/09/28 03:35:38;;;;;;;12.43;6.90;;;6.70;99.90;;;;;;4956780;29;20074;-80
2022/09/28 03:38:03;;;;;;;11.90;7.70;;;6.70;99.90;;;;;;4956917;29;20047;-79
2022/09/28 03:40:29;;;;;;;13.45;7.45;;;6.70;99.90;;;;;;4956927;28;20063;-83
2022/09/28 03:42:55;;;;;;;12.25;8.00;;;6.70;99.90;;;;;;4956913;29;20487;-79
2022/09/28 03:45:21;;;;;;;10.30;6.50;;;7.00;99.90;;;;;;4957116;28;20138;-79
2022/09/28 03:47:47;;;;;;;13.23;8.20;;;6.60;99.90;;;;;;4956887;29;20492;-79
2022/09/28 03:50:13;;;;;;;12.18;7.70;;;6.50;99.90;;;;;;4956547;28;20492;-80
2022/09/28 03:52:39;;;;;;;10.80;7.68;;;6.50;99.90;;;;;;4956684;28;20047;-81
2022/09/28 03:55:05;;;;;;;16.80;8.02;;;6.50;99.90;;;;;;4957135;29;20277;-78
2022/09/28 03:57:30;;;;;;;10.75;7.35;;;6.40;99.90;;;;;;4955882;29;20139;-77
2022/09/28 03:59:56;;;;;;;11.90;7.43;;;6.40;99.90;;;;;;4956482;28;20055;-80
2022/09/28 04:02:22;;;;;;;12.50;8.48;;;6.40;99.90;;;;;;4956579;29;20047;-80
2022/09/28 04:04:47;;;;;;;10.35;6.30;;;6.40;99.90;;;;;;4956781;29;20035;-78
2022/09/28 04:07:13;;;;;;;11.50;7.75;;;6.30;99.90;;;;;;4956441;29;20535;-78
2022/09/28 04:09:38;;;;;;;13.77;8.63;;;6.40;99.90;;;;;;4956430;28;20050;-80
2022/09/28 04:12:05;;;;;;;15.10;7.60;;;6.40;99.90;;;;;;4956461;28;20126;-79
2022/09/28 04:14:31;;;;;;;13.65;8.02;;;6.40;99.90;;;;;;4956395;28;20380;-77
2022/09/28 04:16:56;;;;;;;12.85;8.43;;;6.80;99.90;;;;;;4956346;29;20051;-77
2022/09/28 04:19:22;;;;;;;12.13;7.97;;;6.50;99.90;;;;;;4956323;28;20047;-80
2022/09/28 04:21:49;;;;;;;13.00;8.30;;;6.50;99.90;;;;;;4956194;29;20059;-78
2022/09/28 04:24:15;;;;;;;12.60;7.63;;;6.60;99.90;;;;;;4956152;28;20051;-81
2022/09/28 04:26:41;;;;;;;12.02;8.38;;;6.60;99.90;;;;;;4956178;28;20043;-77
2022/09/28 04:29:15;;;;;;;12.18;9.02;;;6.70;99.90;;;;;;4956133;28;20047;-81
2022/09/28 04:31:48;;;;;;;13.43;8.38;;;6.70;99.90;;;;;;4956147;28;20054;-82
2022/09/28 04:34:16;;;;;;;17.50;9.52;;;6.70;99.90;;;;;;4956086;28;20090;-79
2022/09/28 04:36:46;;;;;;;17.05;10.95;;;6.80;99.90;;;;;;4956016;28;20054;-78
2022/09/28 04:39:13;;;;;;;15.57;10.13;;;6.80;99.90;;;;;;4955817;28;20094;-81
2022/09/28 04:41:39;;;;;;;16.85;11.23;;;6.80;99.90;;;;;;4955967;28;20114;-78
2022/09/28 04:44:04;;;;;;;19.20;10.83;;;6.80;99.90;;;;;;4955903;28;20039;-77
2022/09/28 04:46:31;;;;;;;20.15;11.65;;;6.90;99.90;;;;;;4955622;28;20337;-82
2022/09/28 04:48:56;;;;;;;19.88;12.82;;;6.90;99.90;;;;;;4955767;28;20043;-79
2022/09/28 04:51:22;;;;;;;26.60;13.38;;;7.00;99.90;;;;;;4954611;29;20043;-77
2022/09/28 04:53:47;;;;;;;26.40;14.13;;;7.00;99.90;;;;;;4955844;28;20039;-81
2022/09/28 04:56:14;;;;;;;23.55;12.38;;;7.00;99.90;;;;;;4955851;28;20479;-80
2022/09/28 04:58:41;;;;;;;20.67;11.70;;;7.10;99.90;;;;;;4955789;28;20089;-81
2022/09/28 05:01:10;;;;;;;22.30;13.38;;;7.10;99.90;;;;;;4955746;28;20047;-80
2022/09/28 05:03:36;;;;;;;26.25;13.55;;;7.10;99.90;;;;;;4955439;28;20431;-79
2022/09/28 05:06:02;;;;;;;31.60;17.53;;;7.10;99.90;;;;;;4956102;28;20051;-79
2022/09/28 05:08:28;;;;;;;26.50;13.15;;;7.20;99.90;;;;;;4939072;29;20097;-81
2022/09/28 05:10:59;;;;;;;32.97;14.80;;;7.20;99.90;;;;;;4955625;29;20051;-82
2022/09/28 05:13:25;;;;;;;51.03;13.38;;;7.20;99.90;;;;;;4961429;28;20039;-79
2022/09/28 05:15:53;;;;;;;81.53;14.25;;;7.20;99.90;;;;;;4961655;29;20408;-78
2022/09/28 05:18:18;;;;;;;174.18;25.88;;;7.20;99.90;;;;;;4961866;28;20051;-81
2022/09/28 05:20:44;;;;;;;21.42;12.10;;;7.90;99.90;;;;;;4961954;28;20398;-78
2022/09/28 05:23:11;;;;;;;43.63;15.40;;;7.20;99.90;;;;;;4961870;28;20055;-79
2022/09/28 05:25:40;;;;;;;29.30;14.38;;;7.30;99.90;;;;;;4961869;28;20082;-78
2022/09/28 05:28:06;;;;;;;27.10;13.60;;;7.30;99.90;;;;;;4961858;28;20047;-77
2022/09/28 05:30:32;;;;;;;41.25;12.75;;;7.30;99.90;;;;;;4961802;28;20085;-82
2022/09/28 05:32:58;;;;;;;53.08;10.55;;;7.30;99.90;;;;;;4961763;28;20062;-81
2022/09/28 05:35:24;;;;;;;62.20;17.95;;;7.30;99.90;;;;;;4962225;28;20407;-79
2022/09/28 05:37:49;;;;;;;101.78;14.82;;;7.30;99.90;;;;;;4962084;28;20070;-81
2022/09/28 05:40:15;;;;;;;84.47;15.52;;;7.90;99.90;;;;;;4961479;29;20133;-78
2022/09/28 05:42:41;;;;;;;235.00;25.90;;;7.30;99.90;;;;;;4961587;28;20053;-80
2022/09/28 05:45:09;;;;;;;123.60;16.10;;;7.20;99.90;;;;;;4961590;28;20134;-78
2022/09/28 05:47:42;;;;;;;129.80;15.07;;;7.20;99.90;;;;;;4961624;28;20475;-79
2022/09/28 05:50:14;;;;;;;48.33;12.23;;;7.20;99.90;;;;;;4961653;28;20138;-81
2022/09/28 05:52:40;;;;;;;23.45;11.70;;;7.20;99.90;;;;;;4961650;28;20564;-78
2022/09/28 05:55:07;;;;;;;32.33;12.20;;;7.20;99.90;;;;;;4961644;28;20062;-80
2022/09/28 05:57:32;;;;;;;30.23;11.95;;;7.20;99.90;;;;;;4961615;28;20381;-80
2022/09/28 05:59:58;;;;;;;28.63;12.25;;;7.20;99.90;;;;;;4961560;28;20047;-77
2022/09/28 06:02:24;;;;;;;36.15;13.55;;;7.80;99.90;;;;;;4961989;28;20046;-79
2022/09/28 06:04:50;;;;;;;112.93;14.65;;;7.30;99.90;;;;;;4961827;28;20109;-81
2022/09/28 06:07:20;;;;;;;29.37;11.77;;;7.30;99.90;;;;;;4961547;28;20051;-80
2022/09/28 06:09:46;;;;;;;36.90;12.23;;;7.30;99.90;;;;;;4961783;28;20341;-80
2022/09/28 06:12:11;;;;;;;36.88;12.07;;;7.30;99.90;;;;;;4961132;28;20546;-78
2022/09/28 06:14:37;;;;;;;26.63;12.40;;;7.30;99.90;;;;;;4961470;28;20131;-82
2022/09/28 06:17:03;;;;;;;28.58;11.88;;;7.30;99.90;;;;;;4961375;28;20205;-78
2022/09/28 06:19:29;;;;;;;25.55;14.30;;;7.70;99.90;;;;;;4961335;29;20491;-78
2022/09/28 06:21:55;;;;;;;27.92;12.00;;;7.40;99.90;;;;;;4961352;28;20460;-80
2022/09/28 06:24:21;;;;;;;27.23;10.25;;;7.40;99.90;;;;;;4958947;28;20047;-82
2022/09/28 06:26:46;;;;;;;30.53;11.23;;;7.50;99.90;;;;;;4958384;28;20047;-78
2022/09/28 06:29:18;;;;;;;25.40;10.98;;;7.50;99.90;;;;;;4958231;29;20130;-78
2022/09/28 06:31:44;;;;;;;24.48;9.50;;;7.50;99.90;;;;;;4958092;28;20400;-80
2022/09/28 06:34:11;;;;;;;25.30;11.27;;;7.50;99.90;;;;;;4958594;28;20043;-79
2022/09/28 06:36:37;;;;;;;26.50;12.43;;;7.70;99.90;;;;;;4958031;28;20125;-80
2022/09/28 06:39:03;;;;;;;52.45;11.68;;;7.70;99.90;;;;;;4957925;28;20053;-80
2022/09/28 06:41:28;;;;;;;23.33;11.13;;;7.50;99.90;;;;;;4958258;28;20137;-81
2022/09/28 06:43:55;;;;;;;25.95;11.13;;;7.60;99.90;;;;;;4957939;28;20039;-82
2022/09/28 06:46:21;;;;;;;24.48;10.68;;;8.20;99.90;;;;;;4957985;28;20047;-78
2022/09/28 06:48:47;;;;;;;21.60;9.63;;;7.70;99.90;;;;;;4958268;28;20554;-82
2022/09/28 06:51:13;;;;;;;48.45;11.35;;;7.70;99.90;;;;;;4958122;28;20279;-79
2022/09/28 06:53:39;;;;;;;16.23;9.90;;;7.60;99.90;;;;;;4957887;28;20499;-81
2022/09/28 06:56:08;;;;;;;14.63;8.75;;;7.70;99.90;;;;;;4957834;28;20197;-81
2022/09/28 06:58:33;;;;;;;16.83;9.00;;;7.70;99.90;;;;;;4957785;28;20058;-81
2022/09/28 07:00:59;;;;;;;19.50;8.65;;;7.70;99.90;;;;;;4957705;28;20563;-79
2022/09/28 07:03:26;;;;;;;35.00;10.43;;;7.70;99.90;;;;;;4957358;29;20047;-81
2022/09/28 07:05:53;;;;;;;20.67;8.25;;;7.70;99.90;;;;;;4957631;28;20130;-79
2022/09/28 07:08:24;;;;;;;17.33;7.75;;;7.80;99.90;;;;;;4957658;28;20047;-78
2022/09/28 07:10:57;;;;;;;16.85;8.18;;;7.90;99.90;;;;;;4957602;28;20059;-80
2022/09/28 07:13:27;;;;;;;13.13;7.90;;;7.90;99.90;;;;;;4957519;28;20376;-80
2022/09/28 07:15:54;;;;;;;13.70;7.45;;;8.00;99.90;;;;;;4957257;28;20043;-80
2022/09/28 07:18:22;;;;;;;20.38;9.02;;;7.90;99.90;;;;;;4957434;28;20050;-77
2022/09/28 07:20:48;;;;;;;13.55;8.73;;;7.90;99.90;;;;;;4957304;28;20051;-79
2022/09/28 07:23:14;;;;;;;12.52;6.80;;;8.10;99.90;;;;;;4957065;28;20496;-78
2022/09/28 07:25:44;;;;;;;11.07;7.67;;;8.60;99.90;;;;;;4957277;28;20047;-78
2022/09/28 07:28:10;;;;;;;18.20;7.28;;;8.20;99.90;;;;;;4957755;28;20087;-77
2022/09/28 07:30:36;;;;;;;14.43;6.85;;;8.30;99.90;;;;;;4957232;28;20093;-79
2022/09/28 07:33:05;;;;;;;17.33;7.40;;;8.70;99.90;;;;;;4957321;28;20078;-79
2022/09/28 07:35:33;;;;;;;15.40;8.70;;;8.20;99.90;;;;;;4956580;28;20058;-78
2022/09/28 07:38:03;;;;;;;29.52;9.65;;;8.20;99.90;;;;;;4957046;28;20407;-80
2022/09/28 07:43:19;;;;;;;16.50;8.50;;;8.30;99.90;;;;;;4956951;28;20091;-81
2022/09/28 07:45:49;;;;;;;14.00;7.38;;;8.40;99.90;;;;;;4956950;28;20043;-78
2022/09/28 07:48:16;;;;;;;12.73;7.45;;;8.40;99.90;;;;;;4957174;28;20439;-79
2022/09/28 07:50:50;;;;;;;11.88;7.50;;;8.50;99.90;;;;;;4956725;28;20082;-76
2022/09/28 07:53:18;;;;;;;13.70;7.90;;;8.50;99.90;;;;;;4955808;29;20047;-80
2022/09/28 07:55:49;;;;;;;13.48;8.80;;;8.60;99.90;;;;;;4956646;28;20097;-80
2022/09/28 07:58:14;;;;;;;14.55;7.57;;;9.40;99.90;;;;;;4956910;28;20047;-78
2022/09/28 08:00:40;;;;;;;16.75;7.85;;;8.90;99.90;;;;;;4956615;28;20451;-78
2022/09/28 08:03:05;;;;;;;13.20;8.82;;;8.90;99.90;;;;;;4955616;29;20061;-79
2022/09/28 08:05:34;;;;;;;13.57;7.97;;;9.00;99.90;;;;;;4956415;28;20051;-79
2022/09/28 08:07:59;;;;;;;17.52;9.60;;;9.10;99.90;;;;;;4956934;28;20459;-78
2022/09/28 08:10:25;;;;;;;18.67;10.30;;;9.20;99.90;;;;;;4956958;29;20051;-78
2022/09/28 08:12:55;;;;;;;16.23;9.65;;;9.90;99.90;;;;;;4956422;28;20059;-79
2022/09/28 08:15:21;;;;;;;16.85;9.63;;;9.40;99.90;;;;;;4956388;28;20047;-80
2022/09/28 08:17:47;;;;;;;15.68;8.80;;;9.40;99.90;;;;;;4956424;29;20188;-79
2022/09/28 08:23:08;;;;;;;13.52;9.00;;;9.30;99.90;;;;;;4956331;28;20051;-77
2022/09/28 08:25:37;;;;;;;15.65;9.30;;;9.30;99.90;;;;;;4956259;28;20043;-79
2022/09/28 08:28:05;;;;;;;12.27;8.15;;;9.50;99.90;;;;;;4956239;28;20408;-77
2022/09/28 08:30:31;;;;;;;12.68;7.57;;;9.30;99.90;;;;;;4956111;28;20106;-79
2022/09/28 08:32:56;;;;;;;10.90;7.85;;;9.40;99.90;;;;;;4956104;29;20047;-76
2022/09/28 08:35:25;;;;;;;10.88;7.40;;;9.40;99.90;;;;;;4956122;28;20444;-80
2022/09/28 08:37:53;;;;;;;12.55;7.25;;;9.70;99.90;;;;;;4956023;28;20054;-77
2022/09/28 08:40:24;;;;;;;10.48;7.00;;;9.60;99.90;;;;;;4955936;28;20447;-79
2022/09/28 08:42:53;;;;;;;8.63;6.53;;;9.70;99.90;;;;;;4955951;28;20047;-81
2022/09/28 08:45:27;;;;;;;9.98;6.78;;;10.00;99.90;;;;;;4955754;28;20043;-82
2022/09/28 08:51:15;;;;;;;8.65;6.22;;;9.90;99.90;;;;;;4955881;28;20051;-78
2022/09/28 08:54:04;;;;;;;8.10;6.68;;;10.10;99.90;;;;;;4954643;28;20387;-79
2022/09/28 08:56:46;;;;;;;8.27;5.40;;;10.20;99.90;;;;;;4956039;28;20376;-78
2022/09/28 08:59:22;;;;;;;8.27;5.82;;;10.30;99.90;;;;;;4955802;29;20051;-77
2022/09/28 09:01:54;;;;;;;8.52;6.05;;;10.30;99.90;;;;;;4955463;28;20506;-79
2022/09/28 09:04:20;;;;;;;10.50;6.88;;;10.40;99.90;;;;;;4955687;28;20043;-82
2022/09/28 09:07:11;;;;;;;8.35;5.60;;;10.30;99.90;;;;;;4956030;28;20388;-79
2022/09/28 09:09:55;;;;;;;10.48;5.38;;;10.40;99.90;;;;;;4955920;28;20047;-80
2022/09/28 09:12:40;;;;;;;9.10;5.82;;;10.50;99.90;;;;;;4955625;28;20046;-79
2022/09/28 09:15:27;;;;;;;9.10;6.00;;;10.50;99.90;;;;;;4956003;28;20047;-81
2022/09/28 09:17:56;;;;;;;8.90;6.20;;;10.40;99.90;;;;;;4955797;28;20090;-78
2022/09/28 09:20:57;;;;;;;7.40;5.47;;;10.40;99.90;;;;;;4955541;28;20398;-80
2022/09/28 09:23:36;;;;;;;8.10;5.43;;;10.50;99.90;;;;;;4955461;28;20054;-78
2022/09/28 09:26:16;;;;;;;5.82;4.82;;;10.60;99.90;;;;;;4955864;28;20440;-76
2022/09/28 09:29:08;;;;;;;7.30;5.00;;;10.60;99.90;;;;;;4955685;29;20043;-78
2022/09/28 09:31:58;;;;;;;7.20;5.25;;;10.70;99.90;;;;;;4955942;28;20051;-78
2022/09/28 09:34:56;;;;;;;7.45;5.53;;;10.60;99.90;;;;;;4939226;29;20514;-79
2022/09/28 09:37:24;;;;;;;8.27;5.80;;;10.60;99.90;;;;;;4955491;28;20058;-80
2022/09/28 09:39:56;;;;;;;8.60;5.60;;;10.50;99.90;;;;;;4955157;29;20106;-78
2022/09/28 09:42:47;;;;;;;9.10;6.80;;;10.70;99.90;;;;;;4955731;29;20126;-81
2022/09/28 09:45:27;;;;;;;8.00;6.53;;;10.80;99.90;;;;;;4955226;28;20118;-79
2022/09/28 09:48:05;;;;;;;9.32;6.82;;;11.30;99.90;;;;;;4955396;28;20051;-78
2022/09/28 09:50:30;;;;;;;;;;;10.90;99.90;;;;;;4956134;28;20055;-80
2022/09/28 09:53:05;;;;;;;7.63;5.60;;;11.00;99.90;;;;;;4955814;28;19928;-80
2022/09/28 09:55:45;;;;;;;10.32;6.40;;;11.00;99.90;;;;;;4955430;28;20050;-79
2022/09/28 09:58:29;;;;;;;8.52;5.82;;;11.00;99.90;;;;;;4956309;28;20051;-82
2022/09/28 10:01:19;;;;;;;9.52;5.88;;;11.10;99.90;;;;;;4958872;28;20050;-79
2022/09/28 10:03:47;;;;;;;10.27;6.93;;;11.20;99.90;;;;;;4958495;29;20063;-80
2022/09/28 10:06:26;;;;;;;9.45;7.90;;;11.30;99.90;;;;;;4958742;29;20134;-79
2022/09/28 10:09:28;;;;;;;9.80;6.15;;;11.40;99.90;;;;;;4958693;28;20054;-80
2022/09/28 10:11:54;;;;;;;7.22;5.40;;;11.60;99.90;;;;;;4958553;29;20055;-79
2022/09/28 10:14:22;;;;;;;8.20;5.57;;;11.70;99.90;;;;;;4958584;29;20050;-78
2022/09/28 10:16:49;;;;;;;7.68;5.15;;;12.10;99.90;;;;;;4958480;28;20503;-80
2022/09/28 10:19:19;;;;;;;6.90;4.88;;;12.10;99.90;;;;;;4958558;28;20082;-80
2022/09/28 10:21:49;;;;;;;7.13;4.90;;;12.30;99.90;;;;;;4958390;29;20167;-79
2022/09/28 10:24:40;;;;;;;8.00;4.85;;;12.50;99.90;;;;;;4958356;28;20144;-80
2022/09/28 10:27:18;;;;;;;7.60;5.85;;;12.70;99.90;;;;;;4944259;28;20062;-81
2022/09/28 10:29:54;;;;;;;6.90;5.10;;;13.10;99.90;;;;;;4938818;29;20110;-81
2022/09/28 10:32:25;;;;;;;6.95;5.88;;;12.90;99.90;;;;;;4939139;29;20044;-82
2022/09/28 10:34:52;;;;;;;9.40;6.05;;;13.00;99.90;;;;;;4945312;29;20047;-82
2022/09/28 10:37:18;;;;;;;7.22;5.68;;;13.10;99.90;;;;;;4958082;28;20491;-82
2022/09/28 10:39:54;;;;;;;6.50;5.20;;;13.10;99.90;;;;;;4956890;29;20066;-82
2022/09/28 10:42:28;;;;;;;7.53;6.05;;;13.20;99.90;;;;;;4965154;29;20055;-82
2022/09/28 10:45:05;;;;;;;7.57;5.75;;;13.30;99.90;;;;;;4941100;29;20046;-81
2022/09/28 10:47:34;;;;;;;7.97;5.20;;;13.40;99.90;;;;;;4955820;28;20035;-81
2022/09/28 10:50:00;;;;;;;6.47;5.45;;;13.50;99.90;;;;;;4938516;29;20550;-81
2022/09/28 10:52:35;;;;;;;7.03;5.88;;;13.70;99.90;;;;;;4938598;29;20048;-83
2022/09/28 10:55:02;;;;;;;8.02;5.78;;;13.60;99.90;;;;;;4937616;29;20063;-82
2022/09/28 10:57:33;;;;;;;6.43;5.30;;;13.50;99.90;;;;;;4938002;29;20440;-85
2022/09/28 11:00:00;;;;;;;7.18;5.47;;;13.70;99.90;;;;;;4937833;29;20054;-81
2022/09/28 11:02:29;;;;;;;7.47;5.32;;;13.70;99.90;;;;;;4937720;29;20079;-81
2022/09/28 11:04:58;;;;;;;6.28;4.80;;;13.90;99.90;;;;;;4937894;29;20056;-78
2022/09/28 11:07:29;;;;;;;4.75;4.05;;;14.10;99.90;;;;;;4938302;29;20056;-78
2022/09/28 11:09:55;;;;;;;5.25;4.63;;;14.20;99.90;;;;;;4936891;29;20047;-77
2022/09/28 11:12:27;;;;;;;7.40;5.67;;;14.20;99.90;;;;;;4938338;29;20043;-79
2022/09/28 11:15:03;;;;;;;7.00;4.93;;;14.10;99.90;;;;;;4938639;29;20047;-79
2022/09/28 11:17:31;;;;;;;5.90;4.78;;;14.10;99.90;;;;;;4938616;29;20043;-81
2022/09/28 11:20:22;;;;;;;5.18;4.63;;;14.20;99.90;;;;;;4937688;29;20054;-78
2022/09/28 11:22:48;;;;;;;6.88;4.82;;;13.70;99.90;;;;;;4937287;29;20047;-78
2022/09/28 11:25:16;;;;;;;5.05;4.40;;;13.80;99.90;;;;;;4938007;29;20090;-78
2022/09/28 11:28:03;;;;;;;5.07;4.20;;;13.70;99.90;;;;;;4937839;29;20514;-79
2022/09/28 11:30:47;;;;;;;5.95;4.75;;;13.70;99.90;;;;;;4938109;29;20055;-79
2022/09/28 11:33:34;;;;;;;6.25;4.72;;;13.80;99.90;;;;;;4938166;29;20044;-78
2022/09/28 11:36:03;;;;;;;5.70;4.82;;;13.70;99.90;;;;;;4937221;29;20087;-79
2022/09/28 11:39:01;;;;;;;5.18;3.97;;;13.80;99.90;;;;;;4937989;29;20187;-81
2022/09/28 11:41:46;;;;;;;10.48;4.47;;;13.80;99.90;;;;;;4938434;29;20056;-78
2022/09/28 11:44:32;;;;;;;5.45;4.40;;;13.90;99.90;;;;;;4938159;29;20044;-79
2022/09/28 11:47:08;;;;;;;5.70;4.35;;;14.00;99.90;;;;;;4937901;29;20043;-78
2022/09/28 11:49:40;;;;;;;7.25;4.82;;;14.10;99.90;;;;;;4937735;29;20044;-78
2022/09/28 11:52:15;;;;;;;5.88;4.63;;;14.10;99.90;;;;;;4937647;29;20067;-77
2022/09/28 11:54:50;;;;;;;4.75;3.90;;;14.20;99.90;;;;;;4937907;29;20507;-78
2022/09/28 11:57:22;;;;;;;4.00;3.53;;;14.40;99.90;;;;;;4937597;29;20047;-79
2022/09/28 12:00:01;;;;;;;5.72;3.03;;;14.60;99.90;;;;;;4937542;29;20134;-79
2022/09/28 12:02:40;;;;;;;5.30;3.00;;;14.60;99.90;;;;;;4937511;29;20086;-78
2022/09/28 12:05:21;;;;;;;3.58;3.00;;;14.70;99.90;;;;;;4937657;29;20054;-79
2022/09/28 12:07:54;;;;;;;3.58;2.92;;;14.90;99.90;;;;;;4937448;29;20424;-81
2022/09/28 12:10:37;;;;;;;3.40;2.70;;;15.20;99.90;;;;;;4937279;29;20134;-78
2022/09/28 12:13:09;;;;;;;4.47;2.45;;;15.40;99.90;;;;;;4937407;29;20072;-82
2022/09/28 12:15:59;;;;;;;4.63;2.60;;;15.40;99.90;;;;;;4937053;29;20519;-79
2022/09/28 12:18:38;;;;;;;3.40;2.17;;;15.60;99.90;;;;;;4937116;29;20052;-76
2022/09/28 12:21:34;;;;;;;3.40;2.60;;;15.70;99.90;;;;;;4937117;29;20051;-81
2022/09/28 12:24:11;;;;;;;4.05;2.20;;;15.70;99.90;;;;;;4933622;29;20066;-79
2022/09/28 12:26:52;;;;;;;3.45;2.15;;;15.80;99.90;;;;;;4937223;29;20138;-78
2022/09/28 12:29:41;;;;;;;3.30;2.30;;;15.80;99.90;;;;;;4937534;29;20134;-78
2022/09/28 12:32:26;;;;;;;2.83;2.10;;;15.80;99.90;;;;;;4936587;29;20415;-77
2022/09/28 12:34:51;;;;;;;2.67;2.25;;;15.70;99.90;;;;;;4937132;29;20369;-77
2022/09/28 12:37:52;;;;;;;6.50;2.33;;;15.70;99.90;;;;;;4936926;29;20043;-79
2022/09/28 12:40:25;;;;;;;4.25;2.10;;;15.70;99.90;;;;;;4927016;29;20057;-78
2022/09/28 12:43:24;;;;;;;2.42;1.98;;;15.70;99.90;;;;;;4936699;29;20495;-77
2022/09/28 12:45:56;;;;;;;2.67;1.85;;;15.80;99.90;;;;;;4936737;29;20043;-80
2022/09/28 12:48:37;;;;;;;2.72;1.73;;;15.80;99.90;;;;;;4937150;29;20056;-79
2022/09/28 12:51:17;;;;;;;2.20;1.70;;;15.70;99.90;;;;;;4937001;29;20043;-80
2022/09/28 12:54:05;;;;;;;2.50;1.65;;;15.80;99.90;;;;;;4936880;29;20047;-80
2022/09/28 12:56:52;;;;;;;3.13;1.30;;;15.90;99.90;;;;;;4936671;29;20055;-78
2022/09/28 12:59:18;;;;;;;2.38;1.60;;;15.90;99.90;;;;;;4936455;29;20480;-78
2022/09/28 13:01:49;;;;;;;2.63;1.50;;;16.00;99.90;;;;;;4936418;29;20054;-80
2022/09/28 13:04:36;;;;;;;2.70;1.30;;;15.70;99.90;;;;;;4936419;29;20043;-77
2022/09/28 13:07:16;;;;;;;1.85;1.30;;;15.60;99.90;;;;;;4936848;29;20057;-80
2022/09/28 13:09:50;;;;;;;3.22;1.50;;;15.50;99.90;;;;;;4935735;29;20099;-78
2022/09/28 13:12:50;;;;;;;2.15;1.30;;;15.30;99.90;;;;;;4936206;29;20508;-78
2022/09/28 13:15:40;;;;;;;3.58;1.20;;;15.20;99.90;;;;;;4936425;29;20484;-78
2022/09/28 13:18:08;;;;;;;3.03;1.20;;;15.10;99.90;;;;;;4936385;29;20052;-77
2022/09/28 13:20:50;;;;;;;2.55;1.63;;;15.10;99.90;;;;;;4935412;29;20499;-77
2022/09/28 13:23:34;;;;;;;1.63;1.00;;;15.00;99.90;;;;;;4936126;29;20043;-75